sensor_id;sensor_type;location;lat;lon;timestamp;pressure;altitude;pressure_sealevel;temperature;humidity
70437;BME280;57877;39.750;-104.894;2023-03-02T00:00:57;82769.02;;;-0.87;38.65
70437;BME280;57877;39.750;-104.894;2023-03-02T00:03:19;82770.49;;;-1.82;41.60
70437;BME280;57877;39.750;-104.894;2023-03-02T00:05:44;82773.45;;;-1.43;40.64
70437;BME280;57877;39.750;-104.894;2023-03-02T00:08:09;82771.58;;;-1.34;40.51
70437;BME280;57877;39.750;-104.894;2023-03-02T00:10:34;82775.15;;;-1.19;41.22
70437;BME280;57877;39.750;-104.894;2023-03-02T00:12:59;82778.62;;;-1.88;42.59
70437;BME280;57877;39.750;-104.894;2023-03-02T00:15:24;82786.19;;;-1.95;42.16
70437;BME280;57877;39.750;-104.894;2023-03-02T00:17:49;82785.21;;;-2.20;43.45
70437;BME280;57877;39.750;-104.894;2023-03-02T00:20:14;82787.27;;;-1.76;43.09
70437;BME280;57877;39.750;-104.894;2023-03-02T00:22:40;82786.86;;;-2.12;43.00
70437;BME280;57877;39.750;-104.894;2023-03-02T00:25:12;82792.25;;;-1.85;42.16
70437;BME280;57877;39.750;-104.894;2023-03-02T00:27:29;82791.40;;;-2.22;43.61
70437;BME280;57877;39.750;-104.894;2023-03-02T00:29:54;82794.56;;;-2.85;44.89
70437;BME280;57877;39.750;-104.894;2023-03-02T00:32:20;82805.99;;;-2.31;44.19
70437;BME280;57877;39.750;-104.894;2023-03-02T00:34:45;82811.58;;;-2.55;44.58
70437;BME280;57877;39.750;-104.894;2023-03-02T00:37:10;82815.32;;;-2.55;45.22
70437;BME280;57877;39.750;-104.894;2023-03-02T00:39:35;82813.73;;;-3.09;45.84
70437;BME280;57877;39.750;-104.894;2023-03-02T00:42:00;82822.76;;;-1.91;43.73
70437;BME280;57877;39.750;-104.894;2023-03-02T00:44:25;82820.69;;;-1.88;43.71
70437;BME280;57877;39.750;-104.894;2023-03-02T00:46:50;82817.77;;;-0.98;41.63
70437;BME280;57877;39.750;-104.894;2023-03-02T00:49:15;82826.78;;;-2.28;43.79
70437;BME280;57877;39.750;-104.894;2023-03-02T00:51:40;82833.24;;;-1.20;41.20
70437;BME280;57877;39.750;-104.894;2023-03-02T00:54:05;82833.75;;;-1.63;41.75
70437;BME280;57877;39.750;-104.894;2023-03-02T00:56:30;82837.99;;;-2.22;43.72
70437;BME280;57877;39.750;-104.894;2023-03-02T00:58:56;82839.07;;;-2.84;44.99
70437;BME280;57877;39.750;-104.894;2023-03-02T01:01:21;82842.00;;;-2.13;43.56
70437;BME280;57877;39.750;-104.894;2023-03-02T01:03:46;82845.26;;;-2.12;43.82
70437;BME280;57877;39.750;-104.894;2023-03-02T01:06:15;82857.37;;;-1.80;42.52
70437;BME280;57877;39.750;-104.894;2023-03-02T01:08:36;82861.49;;;-1.54;42.83
70437;BME280;57877;39.750;-104.894;2023-03-02T01:11:01;82857.80;;;-2.64;44.73
70437;BME280;57877;39.750;-104.894;2023-03-02T01:13:26;82863.44;;;-1.66;42.88
70437;BME280;57877;39.750;-104.894;2023-03-02T01:16:00;82867.81;;;-2.23;43.76
70437;BME280;57877;39.750;-104.894;2023-03-02T01:18:16;82865.14;;;-2.15;43.96
70437;BME280;57877;39.750;-104.894;2023-03-02T01:20:41;82861.77;;;-1.53;42.70
70437;BME280;57877;39.750;-104.894;2023-03-02T01:23:07;82863.44;;;-2.31;45.04
70437;BME280;57877;39.750;-104.894;2023-03-02T01:25:32;82867.50;;;-2.14;44.94
70437;BME280;57877;39.750;-104.894;2023-03-02T01:27:57;82876.19;;;-3.11;47.44
70437;BME280;57877;39.750;-104.894;2023-03-02T01:30:22;82875.59;;;-2.68;46.50
70437;BME280;57877;39.750;-104.894;2023-03-02T01:32:47;82878.79;;;-2.83;46.69
70437;BME280;57877;39.750;-104.894;2023-03-02T01:35:12;82882.50;;;-2.51;47.41
70437;BME280;57877;39.750;-104.894;2023-03-02T01:37:37;82885.52;;;-2.30;47.62
70437;BME280;57877;39.750;-104.894;2023-03-02T01:40:02;82885.57;;;-3.36;50.19
70437;BME280;57877;39.750;-104.894;2023-03-02T01:42:35;82883.07;;;-3.64;52.10
70437;BME280;57877;39.750;-104.894;2023-03-02T01:44:53;82886.18;;;-3.38;51.00
70437;BME280;57877;39.750;-104.894;2023-03-02T01:47:21;82889.28;;;-2.77;50.91
70437;BME280;57877;39.750;-104.894;2023-03-02T01:49:48;82888.45;;;-2.75;50.30
70437;BME280;57877;39.750;-104.894;2023-03-02T01:52:08;82883.98;;;-1.60;47.57
70437;BME280;57877;39.750;-104.894;2023-03-02T01:54:33;82894.26;;;-1.60;46.10
70437;BME280;57877;39.750;-104.894;2023-03-02T01:57:04;82904.87;;;-2.97;47.62
70437;BME280;57877;39.750;-104.894;2023-03-02T01:59:24;82911.59;;;-2.40;48.51
70437;BME280;57877;39.750;-104.894;2023-03-02T02:01:51;82913.15;;;-2.23;47.58
70437;BME280;57877;39.750;-104.894;2023-03-02T02:04:14;82911.58;;;-2.07;46.40
70437;BME280;57877;39.750;-104.894;2023-03-02T02:06:40;82914.31;;;-3.03;47.97
70437;BME280;57877;39.750;-104.894;2023-03-02T02:09:07;82919.79;;;-2.43;47.31
70437;BME280;57877;39.750;-104.894;2023-03-02T02:11:29;82925.58;;;-2.58;46.30
70437;BME280;57877;39.750;-104.894;2023-03-02T02:13:57;82921.14;;;-2.61;48.00
70437;BME280;57877;39.750;-104.894;2023-03-02T02:16:19;82919.59;;;-2.80;47.60
70437;BME280;57877;39.750;-104.894;2023-03-02T02:18:44;82927.32;;;-2.60;47.72
70437;BME280;57877;39.750;-104.894;2023-03-02T02:21:09;82928.58;;;-2.46;46.81
70437;BME280;57877;39.750;-104.894;2023-03-02T02:23:41;82929.77;;;-1.42;45.76
70437;BME280;57877;39.750;-104.894;2023-03-02T02:26:06;82932.28;;;-2.14;46.75
70437;BME280;57877;39.750;-104.894;2023-03-02T02:28:31;82934.74;;;-3.30;48.51
70437;BME280;57877;39.750;-104.894;2023-03-02T02:31:02;82935.31;;;-2.14;47.17
70437;BME280;57877;39.750;-104.894;2023-03-02T02:33:17;82936.72;;;-2.18;46.24
70437;BME280;57877;39.750;-104.894;2023-03-02T02:35:40;82941.42;;;-2.11;45.62
70437;BME280;57877;39.750;-104.894;2023-03-02T02:38:06;82938.58;;;-1.68;43.42
70437;BME280;57877;39.750;-104.894;2023-03-02T02:40:39;82937.27;;;-1.73;42.76
70437;BME280;57877;39.750;-104.894;2023-03-02T02:42:55;82932.02;;;-1.61;42.19
70437;BME280;57877;39.750;-104.894;2023-03-02T02:45:23;82929.35;;;-2.11;42.82
70437;BME280;57877;39.750;-104.894;2023-03-02T02:47:45;82925.88;;;-2.31;42.99
70437;BME280;57877;39.750;-104.894;2023-03-02T02:50:18;82927.04;;;-2.29;41.96
70437;BME280;57877;39.750;-104.894;2023-03-02T02:52:36;82931.76;;;-1.83;40.75
70437;BME280;57877;39.750;-104.894;2023-03-02T02:55:01;82935.67;;;-1.28;39.70
70437;BME280;57877;39.750;-104.894;2023-03-02T02:57:28;82936.25;;;-1.95;39.96
70437;BME280;57877;39.750;-104.894;2023-03-02T02:59:53;82938.37;;;-2.08;40.67
70437;BME280;57877;39.750;-104.894;2023-03-02T03:02:20;82939.47;;;-2.09;40.30
70437;BME280;57877;39.750;-104.894;2023-03-02T03:04:41;82939.72;;;-1.55;39.49
70437;BME280;57877;39.750;-104.894;2023-03-02T03:07:12;82943.91;;;-0.84;38.20
70437;BME280;57877;39.750;-104.894;2023-03-02T03:09:32;82948.48;;;-1.17;38.13
70437;BME280;57877;39.750;-104.894;2023-03-02T03:11:59;82945.83;;;-1.84;40.14
70437;BME280;57877;39.750;-104.894;2023-03-02T03:14:32;82941.56;;;-1.13;39.04
70437;BME280;57877;39.750;-104.894;2023-03-02T03:16:49;82938.74;;;-2.51;41.54
70437;BME280;57877;39.750;-104.894;2023-03-02T03:19:16;82938.03;;;-3.14;43.93
70437;BME280;57877;39.750;-104.894;2023-03-02T03:21:37;82942.19;;;-2.12;42.28
70437;BME280;57877;39.750;-104.894;2023-03-02T03:24:02;82943.48;;;-2.12;43.38
70437;BME280;57877;39.750;-104.894;2023-03-02T03:26:27;82946.76;;;-2.39;44.63
70437;BME280;57877;39.750;-104.894;2023-03-02T03:28:53;82943.91;;;-2.01;44.27
70437;BME280;57877;39.750;-104.894;2023-03-02T03:31:18;82943.80;;;-2.30;45.46
70437;BME280;57877;39.750;-104.894;2023-03-02T03:33:43;82941.48;;;-2.00;44.93
70437;BME280;57877;39.750;-104.894;2023-03-02T03:36:09;82943.33;;;-2.34;45.97
70437;BME280;57877;39.750;-104.894;2023-03-02T03:38:33;82942.37;;;-2.25;45.00
70437;BME280;57877;39.750;-104.894;2023-03-02T03:40:58;82944.25;;;-2.06;46.00
70437;BME280;57877;39.750;-104.894;2023-03-02T03:43:23;82940.54;;;-1.25;44.84
70437;BME280;57877;39.750;-104.894;2023-03-02T03:45:49;82940.00;;;-1.88;45.17
70437;BME280;57877;39.750;-104.894;2023-03-02T03:48:14;82939.32;;;-1.87;45.21
70437;BME280;57877;39.750;-104.894;2023-03-02T03:50:39;82938.18;;;-1.70;44.83
70437;BME280;57877;39.750;-104.894;2023-03-02T03:53:04;82940.36;;;-1.36;44.04
70437;BME280;57877;39.750;-104.894;2023-03-02T03:55:29;82943.21;;;-1.26;43.16
70437;BME280;57877;39.750;-104.894;2023-03-02T03:57:55;82944.06;;;-1.38;44.07
70437;BME280;57877;39.750;-104.894;2023-03-02T04:00:21;82942.85;;;-1.18;43.92
70437;BME280;57877;39.750;-104.894;2023-03-02T04:02:44;82946.97;;;-1.04;43.44
70437;BME280;57877;39.750;-104.894;2023-03-02T04:05:10;82943.92;;;-1.28;43.71
70437;BME280;57877;39.750;-104.894;2023-03-02T04:07:36;82944.03;;;-1.25;44.34
70437;BME280;57877;39.750;-104.894;2023-03-02T04:10:00;82941.36;;;-1.73;44.18
70437;BME280;57877;39.750;-104.894;2023-03-02T04:12:25;82939.95;;;-1.36;44.38
70437;BME280;57877;39.750;-104.894;2023-03-02T04:14:50;82942.42;;;-1.77;45.24
70437;BME280;57877;39.750;-104.894;2023-03-02T04:17:15;82949.55;;;-1.78;44.94
70437;BME280;57877;39.750;-104.894;2023-03-02T04:19:40;82951.84;;;-1.36;44.61
70437;BME280;57877;39.750;-104.894;2023-03-02T04:22:05;82952.54;;;-0.97;43.81
70437;BME280;57877;39.750;-104.894;2023-03-02T04:24:31;82957.85;;;-1.32;43.47
70437;BME280;57877;39.750;-104.894;2023-03-02T04:26:56;82955.19;;;-1.43;44.01
70437;BME280;57877;39.750;-104.894;2023-03-02T04:29:21;82958.84;;;-1.53;43.79
70437;BME280;57877;39.750;-104.894;2023-03-02T04:31:46;82958.01;;;-1.17;43.66
70437;BME280;57877;39.750;-104.894;2023-03-02T04:34:11;82958.78;;;-0.95;43.22
70437;BME280;57877;39.750;-104.894;2023-03-02T04:36:38;82959.35;;;-1.02;42.66
70437;BME280;57877;39.750;-104.894;2023-03-02T04:39:03;82963.75;;;-0.77;42.62
70437;BME280;57877;39.750;-104.894;2023-03-02T04:41:27;82970.14;;;-0.73;42.52
70437;BME280;57877;39.750;-104.894;2023-03-02T04:43:52;82969.02;;;-1.04;42.67
70437;BME280;57877;39.750;-104.894;2023-03-02T04:46:21;82965.11;;;-0.99;43.04
70437;BME280;57877;39.750;-104.894;2023-03-02T04:48:42;82967.43;;;-0.94;42.64
70437;BME280;57877;39.750;-104.894;2023-03-02T04:51:09;82962.94;;;-0.85;42.29
70437;BME280;57877;39.750;-104.894;2023-03-02T04:53:32;82957.79;;;-0.77;42.08
70437;BME280;57877;39.750;-104.894;2023-03-02T04:55:58;82955.58;;;-0.78;42.41
70437;BME280;57877;39.750;-104.894;2023-03-02T04:58:23;82955.75;;;-0.25;41.97
70437;BME280;57877;39.750;-104.894;2023-03-02T05:00:48;82958.22;;;-0.28;41.87
70437;BME280;57877;39.750;-104.894;2023-03-02T05:03:13;82963.66;;;-0.31;42.06
70437;BME280;57877;39.750;-104.894;2023-03-02T05:05:38;82963.54;;;-0.48;41.50
70437;BME280;57877;39.750;-104.894;2023-03-02T05:08:04;82960.20;;;-0.15;41.57
70437;BME280;57877;39.750;-104.894;2023-03-02T05:10:29;82949.80;;;-1.08;43.45
70437;BME280;57877;39.750;-104.894;2023-03-02T05:12:54;82941.82;;;-0.90;43.13
70437;BME280;57877;39.750;-104.894;2023-03-02T05:15:19;82936.58;;;-0.91;42.40
70437;BME280;57877;39.750;-104.894;2023-03-02T05:17:44;82928.48;;;-0.91;42.75
70437;BME280;57877;39.750;-104.894;2023-03-02T05:20:11;82924.92;;;-1.30;43.89
70437;BME280;57877;39.750;-104.894;2023-03-02T05:22:34;82931.29;;;-1.38;43.78
70437;BME280;57877;39.750;-104.894;2023-03-02T05:24:59;82933.98;;;-0.96;43.17
70437;BME280;57877;39.750;-104.894;2023-03-02T05:27:24;82933.82;;;-1.08;43.64
70437;BME280;57877;39.750;-104.894;2023-03-02T05:29:49;82933.75;;;-1.50;44.25
70437;BME280;57877;39.750;-104.894;2023-03-02T05:32:15;82939.45;;;-1.62;44.75
70437;BME280;57877;39.750;-104.894;2023-03-02T05:34:40;82939.67;;;-1.69;44.22
70437;BME280;57877;39.750;-104.894;2023-03-02T05:37:05;82937.08;;;-0.74;43.31
70437;BME280;57877;39.750;-104.894;2023-03-02T05:39:30;82936.80;;;-0.81;43.07
70437;BME280;57877;39.750;-104.894;2023-03-02T05:41:55;82935.74;;;-0.82;43.09
70437;BME280;57877;39.750;-104.894;2023-03-02T05:44:20;82941.26;;;-0.72;43.14
70437;BME280;57877;39.750;-104.894;2023-03-02T05:46:45;82942.56;;;-0.63;42.64
70437;BME280;57877;39.750;-104.894;2023-03-02T05:49:11;82943.71;;;-0.69;42.43
70437;BME280;57877;39.750;-104.894;2023-03-02T05:51:36;82945.18;;;-0.72;42.19
70437;BME280;57877;39.750;-104.894;2023-03-02T05:54:01;82949.81;;;-0.50;41.67
70437;BME280;57877;39.750;-104.894;2023-03-02T05:56:26;82951.03;;;-0.66;42.13
70437;BME280;57877;39.750;-104.894;2023-03-02T05:58:51;82950.87;;;-1.03;41.77
70437;BME280;57877;39.750;-104.894;2023-03-02T06:01:16;82945.96;;;-0.55;41.91
70437;BME280;57877;39.750;-104.894;2023-03-02T06:03:41;82942.93;;;-0.70;41.82
70437;BME280;57877;39.750;-104.894;2023-03-02T06:06:07;82936.80;;;-0.84;42.10
70437;BME280;57877;39.750;-104.894;2023-03-02T06:08:32;82939.79;;;-0.97;42.14
70437;BME280;57877;39.750;-104.894;2023-03-02T06:10:57;82936.72;;;-1.25;42.39
70437;BME280;57877;39.750;-104.894;2023-03-02T06:13:22;82935.51;;;-1.12;42.72
70437;BME280;57877;39.750;-104.894;2023-03-02T06:15:47;82936.02;;;-0.87;42.19
70437;BME280;57877;39.750;-104.894;2023-03-02T06:18:12;82932.45;;;-0.98;41.85
70437;BME280;57877;39.750;-104.894;2023-03-02T06:20:37;82930.62;;;-1.00;42.30
70437;BME280;57877;39.750;-104.894;2023-03-02T06:23:02;82933.40;;;-0.87;42.03
70437;BME280;57877;39.750;-104.894;2023-03-02T06:25:28;82932.67;;;-0.92;41.68
70437;BME280;57877;39.750;-104.894;2023-03-02T06:27:53;82935.42;;;-1.37;43.17
70437;BME280;57877;39.750;-104.894;2023-03-02T06:30:20;82938.82;;;-2.35;44.16
70437;BME280;57877;39.750;-104.894;2023-03-02T06:32:43;82935.02;;;-2.21;44.97
70437;BME280;57877;39.750;-104.894;2023-03-02T06:35:09;82933.27;;;-1.51;43.69
70437;BME280;57877;39.750;-104.894;2023-03-02T06:37:34;82933.59;;;-1.52;43.29
70437;BME280;57877;39.750;-104.894;2023-03-02T06:39:58;82930.43;;;-1.39;44.03
70437;BME280;57877;39.750;-104.894;2023-03-02T06:42:24;82928.03;;;-1.01;43.26
70437;BME280;57877;39.750;-104.894;2023-03-02T06:44:49;82924.39;;;-1.09;43.10
70437;BME280;57877;39.750;-104.894;2023-03-02T06:47:14;82922.84;;;-0.98;42.61
70437;BME280;57877;39.750;-104.894;2023-03-02T06:49:39;82929.78;;;-0.84;42.47
70437;BME280;57877;39.750;-104.894;2023-03-02T06:52:04;82929.25;;;-1.11;42.10
70437;BME280;57877;39.750;-104.894;2023-03-02T06:54:29;82921.74;;;-1.05;42.36
70437;BME280;57877;39.750;-104.894;2023-03-02T06:56:54;82924.53;;;-1.07;42.29
70437;BME280;57877;39.750;-104.894;2023-03-02T06:59:19;82926.69;;;-0.91;42.34
70437;BME280;57877;39.750;-104.894;2023-03-02T07:01:44;82928.80;;;-0.88;42.03
70437;BME280;57877;39.750;-104.894;2023-03-02T07:04:10;82927.48;;;-1.10;42.27
70437;BME280;57877;39.750;-104.894;2023-03-02T07:06:35;82929.38;;;-0.97;41.94
70437;BME280;57877;39.750;-104.894;2023-03-02T07:09:01;82925.16;;;-1.02;42.08
70437;BME280;57877;39.750;-104.894;2023-03-02T07:11:25;82920.81;;;-1.13;41.92
70437;BME280;57877;39.750;-104.894;2023-03-02T07:13:50;82915.89;;;-1.34;42.22
70437;BME280;57877;39.750;-104.894;2023-03-02T07:16:15;82915.74;;;-1.13;42.22
70437;BME280;57877;39.750;-104.894;2023-03-02T07:18:41;82923.24;;;-1.57;42.54
70437;BME280;57877;39.750;-104.894;2023-03-02T07:21:06;82917.55;;;-1.37;42.23
70437;BME280;57877;39.750;-104.894;2023-03-02T07:23:31;82911.89;;;-1.32;42.14
70437;BME280;57877;39.750;-104.894;2023-03-02T07:25:56;82905.77;;;-1.13;41.94
70437;BME280;57877;39.750;-104.894;2023-03-02T07:28:21;82904.89;;;-1.10;41.89
70437;BME280;57877;39.750;-104.894;2023-03-02T07:30:46;82906.83;;;-1.11;41.56
70437;BME280;57877;39.750;-104.894;2023-03-02T07:33:11;82899.19;;;-0.86;41.39
70437;BME280;57877;39.750;-104.894;2023-03-02T07:35:36;82895.87;;;-1.12;41.66
70437;BME280;57877;39.750;-104.894;2023-03-02T07:38:01;82903.16;;;-1.14;41.34
70437;BME280;57877;39.750;-104.894;2023-03-02T07:40:27;82902.42;;;-1.05;41.08
70437;BME280;57877;39.750;-104.894;2023-03-02T07:42:52;82897.01;;;-1.16;40.78
70437;BME280;57877;39.750;-104.894;2023-03-02T07:45:17;82889.34;;;-1.10;41.31
70437;BME280;57877;39.750;-104.894;2023-03-02T07:47:42;82887.73;;;-1.80;41.86
70437;BME280;57877;39.750;-104.894;2023-03-02T07:50:08;82887.09;;;-1.48;41.61
70437;BME280;57877;39.750;-104.894;2023-03-02T07:52:32;82890.41;;;-1.68;41.87
70437;BME280;57877;39.750;-104.894;2023-03-02T07:54:58;82881.43;;;-1.88;41.49
70437;BME280;57877;39.750;-104.894;2023-03-02T07:57:23;82869.53;;;-1.62;41.92
70437;BME280;57877;39.750;-104.894;2023-03-02T07:59:48;82878.78;;;-1.66;41.91
70437;BME280;57877;39.750;-104.894;2023-03-02T08:02:14;82888.57;;;-2.12;42.24
70437;BME280;57877;39.750;-104.894;2023-03-02T08:04:38;82897.20;;;-2.09;41.82
70437;BME280;57877;39.750;-104.894;2023-03-02T08:07:03;82909.71;;;-1.95;42.21
70437;BME280;57877;39.750;-104.894;2023-03-02T08:09:28;82909.59;;;-1.97;42.44
70437;BME280;57877;39.750;-104.894;2023-03-02T08:11:53;82909.18;;;-1.80;42.15
70437;BME280;57877;39.750;-104.894;2023-03-02T08:14:18;82904.36;;;-1.79;41.98
70437;BME280;57877;39.750;-104.894;2023-03-02T08:16:44;82895.08;;;-1.86;41.74
70437;BME280;57877;39.750;-104.894;2023-03-02T08:19:09;82889.81;;;-1.56;41.66
70437;BME280;57877;39.750;-104.894;2023-03-02T08:21:34;82881.02;;;-1.82;41.94
70437;BME280;57877;39.750;-104.894;2023-03-02T08:23:59;82880.22;;;-2.27;42.18
70437;BME280;57877;39.750;-104.894;2023-03-02T08:26:24;82872.78;;;-1.78;41.61
70437;BME280;57877;39.750;-104.894;2023-03-02T08:28:49;82861.76;;;-1.91;41.34
70437;BME280;57877;39.750;-104.894;2023-03-02T08:31:15;82859.21;;;-1.87;41.13
70437;BME280;57877;39.750;-104.894;2023-03-02T08:33:40;82856.84;;;-1.89;41.24
70437;BME280;57877;39.750;-104.894;2023-03-02T08:36:07;82853.07;;;-1.89;40.90
70437;BME280;57877;39.750;-104.894;2023-03-02T08:38:30;82853.84;;;-2.24;41.06
70437;BME280;57877;39.750;-104.894;2023-03-02T08:40:55;82846.12;;;-2.15;40.90
70437;BME280;57877;39.750;-104.894;2023-03-02T08:43:22;82850.49;;;-2.67;41.79
70437;BME280;57877;39.750;-104.894;2023-03-02T08:45:49;82854.88;;;-2.56;41.50
70437;BME280;57877;39.750;-104.894;2023-03-02T08:48:11;82852.23;;;-2.60;41.71
70437;BME280;57877;39.750;-104.894;2023-03-02T08:50:36;82845.08;;;-2.56;41.51
70437;BME280;57877;39.750;-104.894;2023-03-02T08:53:01;82842.84;;;-2.28;41.95
70437;BME280;57877;39.750;-104.894;2023-03-02T08:55:26;82842.61;;;-2.42;42.15
70437;BME280;57877;39.750;-104.894;2023-03-02T08:57:51;82836.91;;;-2.38;41.90
70437;BME280;57877;39.750;-104.894;2023-03-02T09:00:17;82834.70;;;-3.10;42.10
70437;BME280;57877;39.750;-104.894;2023-03-02T09:02:41;82835.88;;;-2.89;42.20
70437;BME280;57877;39.750;-104.894;2023-03-02T09:05:07;82832.35;;;-2.73;41.99
70437;BME280;57877;39.750;-104.894;2023-03-02T09:07:31;82829.91;;;-2.77;41.29
70437;BME280;57877;39.750;-104.894;2023-03-02T09:09:57;82827.65;;;-3.06;41.71
70437;BME280;57877;39.750;-104.894;2023-03-02T09:12:22;82828.57;;;-2.99;41.55
70437;BME280;57877;39.750;-104.894;2023-03-02T09:14:47;82829.56;;;-2.74;41.52
70437;BME280;57877;39.750;-104.894;2023-03-02T09:17:12;82823.47;;;-2.87;40.81
70437;BME280;57877;39.750;-104.894;2023-03-02T09:19:37;82819.58;;;-2.89;40.22
70437;BME280;57877;39.750;-104.894;2023-03-02T09:22:03;82816.20;;;-3.33;41.00
70437;BME280;57877;39.750;-104.894;2023-03-02T09:24:28;82809.67;;;-3.14;41.60
70437;BME280;57877;39.750;-104.894;2023-03-02T09:26:53;82807.53;;;-3.22;42.04
70437;BME280;57877;39.750;-104.894;2023-03-02T09:29:18;82797.96;;;-3.34;43.14
70437;BME280;57877;39.750;-104.894;2023-03-02T09:31:43;82791.79;;;-3.30;42.86
70437;BME280;57877;39.750;-104.894;2023-03-02T09:34:08;82794.68;;;-3.26;43.35
70437;BME280;57877;39.750;-104.894;2023-03-02T09:36:33;82789.78;;;-3.27;43.44
70437;BME280;57877;39.750;-104.894;2023-03-02T09:38:59;82784.84;;;-3.37;43.35
70437;BME280;57877;39.750;-104.894;2023-03-02T09:41:41;82778.22;;;-3.17;43.73
70437;BME280;57877;39.750;-104.894;2023-03-02T09:43:54;82771.69;;;-3.52;43.64
70437;BME280;57877;39.750;-104.894;2023-03-02T09:46:17;82770.34;;;-3.23;43.60
70437;BME280;57877;39.750;-104.894;2023-03-02T09:48:45;82775.42;;;-3.14;43.06
70437;BME280;57877;39.750;-104.894;2023-03-02T09:51:17;82773.63;;;-3.25;43.10
70437;BME280;57877;39.750;-104.894;2023-03-02T09:53:36;82772.32;;;-3.19;42.62
70437;BME280;57877;39.750;-104.894;2023-03-02T09:55:57;82769.71;;;-3.18;42.46
70437;BME280;57877;39.750;-104.894;2023-03-02T09:58:21;82769.99;;;-3.25;42.37
70437;BME280;57877;39.750;-104.894;2023-03-02T10:00:45;82768.83;;;-3.43;42.53
70437;BME280;57877;39.750;-104.894;2023-03-02T10:03:14;82767.32;;;-3.58;42.75
70437;BME280;57877;39.750;-104.894;2023-03-02T10:05:38;82766.88;;;-3.24;42.20
70437;BME280;57877;39.750;-104.894;2023-03-02T10:08:00;82770.93;;;-3.14;41.94
70437;BME280;57877;39.750;-104.894;2023-03-02T10:10:32;82767.40;;;-3.09;41.97
70437;BME280;57877;39.750;-104.894;2023-03-02T10:13:01;82760.88;;;-3.01;41.57
70437;BME280;57877;39.750;-104.894;2023-03-02T10:15:20;82758.09;;;-3.31;41.66
70437;BME280;57877;39.750;-104.894;2023-03-02T10:17:51;82753.02;;;-3.28;41.72
70437;BME280;57877;39.750;-104.894;2023-03-02T10:20:12;82747.14;;;-3.13;41.42
70437;BME280;57877;39.750;-104.894;2023-03-02T10:22:33;82744.11;;;-2.70;41.31
70437;BME280;57877;39.750;-104.894;2023-03-02T10:25:02;82741.75;;;-3.40;41.34
70437;BME280;57877;39.750;-104.894;2023-03-02T10:27:25;82744.96;;;-3.66;41.55
70437;BME280;57877;39.750;-104.894;2023-03-02T10:29:50;82745.53;;;-3.32;41.21
70437;BME280;57877;39.750;-104.894;2023-03-02T10:32:18;82746.24;;;-3.66;41.74
70437;BME280;57877;39.750;-104.894;2023-03-02T10:34:37;82748.92;;;-3.58;42.11
70437;BME280;57877;39.750;-104.894;2023-03-02T10:37:02;82747.13;;;-3.39;42.21
70437;BME280;57877;39.750;-104.894;2023-03-02T10:39:27;82747.48;;;-3.44;42.05
70437;BME280;57877;39.750;-104.894;2023-03-02T10:41:57;82747.79;;;-3.25;42.06
70437;BME280;57877;39.750;-104.894;2023-03-02T10:44:21;82744.93;;;-3.24;41.59
70437;BME280;57877;39.750;-104.894;2023-03-02T10:46:44;82748.02;;;-2.98;41.00
70437;BME280;57877;39.750;-104.894;2023-03-02T10:51:34;82757.55;;;-3.12;41.69
70437;BME280;57877;39.750;-104.894;2023-03-02T10:54:04;82755.00;;;-3.27;42.05
70437;BME280;57877;39.750;-104.894;2023-03-02T10:56:23;82760.64;;;-3.69;43.34
70437;BME280;57877;39.750;-104.894;2023-03-02T10:58:48;82762.13;;;-3.25;42.72
70437;BME280;57877;39.750;-104.894;2023-03-02T11:01:17;82766.61;;;-3.21;43.04
70437;BME280;57877;39.750;-104.894;2023-03-02T11:03:39;82769.77;;;-2.89;42.80
70437;BME280;57877;39.750;-104.894;2023-03-02T11:06:11;82769.98;;;-2.66;42.30
70437;BME280;57877;39.750;-104.894;2023-03-02T11:08:29;82770.20;;;-2.53;42.30
70437;BME280;57877;39.750;-104.894;2023-03-02T11:10:56;82767.74;;;-2.70;42.92
70437;BME280;57877;39.750;-104.894;2023-03-02T11:13:22;82766.54;;;-2.47;42.66
70437;BME280;57877;39.750;-104.894;2023-03-02T11:15:47;82774.06;;;-2.69;42.70
70437;BME280;57877;39.750;-104.894;2023-03-02T11:18:19;82780.83;;;-2.47;42.40
70437;BME280;57877;39.750;-104.894;2023-03-02T11:20:37;82774.22;;;-2.08;42.31
70437;BME280;57877;39.750;-104.894;2023-03-02T11:23:08;82769.81;;;-2.58;42.66
70437;BME280;57877;39.750;-104.894;2023-03-02T11:25:29;82775.27;;;-1.99;42.32
70437;BME280;57877;39.750;-104.894;2023-03-02T11:27:53;82781.62;;;-2.09;42.37
70437;BME280;57877;39.750;-104.894;2023-03-02T11:30:17;82782.85;;;-2.16;42.13
70437;BME280;57877;39.750;-104.894;2023-03-02T11:32:43;82784.09;;;-1.63;41.81
70437;BME280;57877;39.750;-104.894;2023-03-02T11:35:09;82785.39;;;-1.47;41.57
70437;BME280;57877;39.750;-104.894;2023-03-02T11:37:37;82782.59;;;-1.78;41.62
70437;BME280;57877;39.750;-104.894;2023-03-02T11:40:05;82781.47;;;-1.88;42.03
70437;BME280;57877;39.750;-104.894;2023-03-02T11:42:26;82784.32;;;-1.71;41.86
70437;BME280;57877;39.750;-104.894;2023-03-02T11:44:46;82788.25;;;-1.57;41.44
70437;BME280;57877;39.750;-104.894;2023-03-02T11:47:11;82785.23;;;-1.05;41.16
70437;BME280;57877;39.750;-104.894;2023-03-02T11:49:41;82783.26;;;-1.34;41.10
70437;BME280;57877;39.750;-104.894;2023-03-02T11:52:01;82786.38;;;-0.88;40.81
70437;BME280;57877;39.750;-104.894;2023-03-02T11:54:34;82794.04;;;-1.07;40.56
70437;BME280;57877;39.750;-104.894;2023-03-02T11:56:51;82796.46;;;-1.65;41.94
70437;BME280;57877;39.750;-104.894;2023-03-02T11:59:18;82794.27;;;-1.32;41.00
70437;BME280;57877;39.750;-104.894;2023-03-02T12:01:42;82794.13;;;-0.88;40.85
70437;BME280;57877;39.750;-104.894;2023-03-02T12:04:08;82792.26;;;-1.10;40.65
70437;BME280;57877;39.750;-104.894;2023-03-02T12:06:38;82791.35;;;-1.01;40.58
70437;BME280;57877;39.750;-104.894;2023-03-02T12:11:32;82788.02;;;-0.96;40.13
70437;BME280;57877;39.750;-104.894;2023-03-02T12:13:58;82782.59;;;-1.09;40.88
70437;BME280;57877;39.750;-104.894;2023-03-02T12:16:18;82777.66;;;-1.04;40.36
70437;BME280;57877;39.750;-104.894;2023-03-02T12:18:43;82773.04;;;-1.14;40.30
70437;BME280;57877;39.750;-104.894;2023-03-02T12:21:04;82769.34;;;-1.73;40.81
70437;BME280;57877;39.750;-104.894;2023-03-02T12:23:28;82768.28;;;-1.31;39.96